Time;durP1;ratioP1;P1;durP2;ratioP2;P2;SDS_P1;SDS_P2;PMS_P1;PMS_P2;Temp;Humidity;BMP_temperature;BMP_pressure;BME280_temperature;BME280_humidity;BME280_pressure;Samples;Min_cycle;Max_cycle;Signal;HPM_P1;HPM_P2
2022/03/31 00:00:37;;;;;;;4.95;1.17;;;32.00;20.50;;;;;;4966120;28;20585;-62
2022/03/31 00:03:06;;;;;;;118.82;7.47;;;31.80;20.60;;;;;;4967406;28;20185;-61
2022/03/31 00:05:33;;;;;;;2.45;0.77;;;31.90;20.90;;;;;;4966304;28;20101;-60
2022/03/31 00:08:03;;;;;;;5.88;1.17;;;31.80;20.60;;;;;;4968930;28;20063;-63
2022/03/31 00:10:31;;;;;;;15.13;1.80;;;31.70;20.80;;;;;;4950499;28;20098;-61
2022/03/31 00:13:00;;;;;;;6.72;1.10;;;31.70;20.90;;;;;;4951184;28;20064;-60
2022/03/31 00:15:28;;;;;;;5.47;1.13;;;31.50;20.80;;;;;;4966006;28;20111;-61
2022/03/31 00:17:56;;;;;;;7.57;1.33;;;31.40;20.70;;;;;;4950910;28;20081;-60
2022/03/31 00:20:22;;;;;;;4.68;1.35;;;31.40;21.00;;;;;;4951884;28;20074;-62
2022/03/31 00:22:49;;;;;;;4.75;1.20;;;31.50;20.90;;;;;;4950646;28;20066;-61
2022/03/31 00:25:15;;;;;;;5.63;1.33;;;31.50;21.00;;;;;;4965170;28;20087;-60
2022/03/31 00:27:42;;;;;;;10.15;1.60;;;31.40;21.00;;;;;;4966079;28;20145;-62
2022/03/31 00:30:10;;;;;;;21.23;1.77;;;31.40;20.70;;;;;;4949894;28;20083;-60
2022/03/31 00:32:38;;;;;;;34.00;3.30;;;31.20;20.80;;;;;;4966083;28;20121;-62
2022/03/31 00:35:06;;;;;;;35.53;2.22;;;31.10;20.60;;;;;;4966659;28;20073;-61
2022/03/31 00:37:32;;;;;;;23.88;1.52;;;31.10;20.50;;;;;;4950050;28;20099;-59
2022/03/31 00:39:59;;;;;;;1178.60;91.57;;;30.90;20.40;;;;;;4949413;28;20080;-64
2022/03/31 00:42:25;;;;;;;172.93;6.07;;;30.80;21.00;;;;;;4967367;28;20161;-64
2022/03/31 00:44:52;;;;;;;463.48;33.33;;;30.70;21.20;;;;;;4951067;28;20096;-58
2022/03/31 00:47:19;;;;;;;389.98;21.27;;;30.70;21.10;;;;;;4950644;28;20068;-62
2022/03/31 00:49:46;;;;;;;312.50;18.67;;;30.50;21.30;;;;;;4966204;28;20153;-61
2022/03/31 00:52:13;;;;;;;144.38;10.93;;;30.50;20.80;;;;;;4965655;28;20077;-63
2022/03/31 00:54:43;;;;;;;656.38;34.22;;;30.50;21.30;;;;;;4966196;28;20111;-61
2022/03/31 00:57:11;;;;;;;125.32;7.95;;;30.40;21.70;;;;;;4950862;28;20061;-61
2022/03/31 00:59:38;;;;;;;510.33;36.88;;;30.30;21.50;;;;;;4951257;28;20111;-61
2022/03/31 01:02:05;;;;;;;46.92;3.75;;;30.20;21.80;;;;;;4965314;28;20420;-61
2022/03/31 01:04:34;;;;;;;788.30;36.58;;;30.10;22.00;;;;;;4965756;28;20073;-59
2022/03/31 01:07:01;;;;;;;51.30;3.13;;;30.10;22.10;;;;;;4951237;28;20170;-61
2022/03/31 01:09:27;;;;;;;223.68;7.18;;;30.10;22.10;;;;;;4964961;28;20071;-60
2022/03/31 01:11:54;;;;;;;96.18;4.68;;;29.90;21.80;;;;;;4965812;28;20102;-59
2022/03/31 01:14:20;;;;;;;16.65;1.63;;;29.70;22.40;;;;;;4965273;28;20476;-61
2022/03/31 01:16:47;;;;;;;737.00;57.28;;;29.60;22.10;;;;;;4951818;28;20169;-62
2022/03/31 01:19:13;;;;;;;59.60;5.28;;;29.50;22.40;;;;;;4966121;28;20070;-61
2022/03/31 01:21:42;;;;;;;31.40;3.15;;;29.40;22.40;;;;;;4965049;28;20119;-61
2022/03/31 01:24:10;;;;;;;9.88;1.52;;;29.30;22.70;;;;;;4965294;28;20093;-62
2022/03/31 01:26:40;;;;;;;4.35;1.20;;;29.20;22.70;;;;;;4949642;28;20105;-60
2022/03/31 01:29:08;;;;;;;5.25;1.10;;;29.10;22.80;;;;;;4953694;28;20083;-60
2022/03/31 01:31:37;;;;;;;6.57;1.08;;;29.00;23.00;;;;;;4954611;28;20097;-60
2022/03/31 01:34:05;;;;;;;5.47;1.10;;;28.80;23.00;;;;;;4949776;28;20101;-62
2022/03/31 01:36:32;;;;;;;25.75;2.38;;;28.60;23.20;;;;;;4965770;28;20495;-61
2022/03/31 01:38:58;;;;;;;39.08;3.35;;;28.50;23.30;;;;;;4960070;28;20212;-65
2022/03/31 01:41:24;;;;;;;10.90;1.35;;;28.40;23.70;;;;;;4949195;28;20121;-62
2022/03/31 01:43:52;;;;;;;12.27;1.80;;;28.30;23.70;;;;;;4965204;28;20078;-63
2022/03/31 01:46:18;;;;;;;8.77;1.23;;;28.20;23.80;;;;;;4968336;28;20094;-60
2022/03/31 01:48:45;;;;;;;6.50;1.50;;;28.10;24.00;;;;;;4955598;28;20571;-63
2022/03/31 01:51:12;;;;;;;7.75;1.60;;;28.00;24.30;;;;;;4953972;28;20217;-62
2022/03/31 01:53:39;;;;;;;7.35;2.10;;;27.90;24.60;;;;;;4950033;28;20071;-62
2022/03/31 01:56:09;;;;;;;17.80;2.70;;;27.80;24.70;;;;;;4965029;28;20245;-59
2022/03/31 01:58:36;;;;;;;10.95;3.05;;;27.70;25.30;;;;;;4965790;28;20137;-59
2022/03/31 02:01:04;;;;;;;12.38;3.10;;;27.50;25.30;;;;;;4965408;28;20086;-61
2022/03/31 02:03:31;;;;;;;10.43;3.10;;;27.40;25.50;;;;;;4964764;28;20122;-62
2022/03/31 02:05:58;;;;;;;13.40;2.95;;;27.30;25.80;;;;;;4955709;28;20550;-60
2022/03/31 02:08:24;;;;;;;19.13;3.05;;;27.00;25.60;;;;;;4969912;28;20067;-61
2022/03/31 02:10:50;;;;;;;36.03;3.03;;;27.00;26.00;;;;;;4969062;28;20121;-61
2022/03/31 02:13:17;;;;;;;22.98;2.58;;;27.00;26.30;;;;;;4945123;28;20082;-60
2022/03/31 02:15:43;;;;;;;26.02;2.50;;;26.90;26.60;;;;;;4952104;28;20166;-62
2022/03/31 02:18:10;;;;;;;40.75;3.50;;;26.80;26.40;;;;;;4953821;28;20676;-63
2022/03/31 02:20:38;;;;;;;22.15;3.20;;;26.80;27.00;;;;;;4969399;28;20096;-62
2022/03/31 02:23:05;;;;;;;19.52;3.70;;;26.70;27.40;;;;;;4954121;28;20098;-60
2022/03/31 02:25:32;;;;;;;29.40;3.97;;;26.70;27.90;;;;;;4969211;28;20153;-61
2022/03/31 02:27:58;;;;;;;39.42;4.25;;;26.60;28.00;;;;;;4968434;28;20446;-63
2022/03/31 02:30:24;;;;;;;28.95;3.38;;;26.70;28.30;;;;;;4967950;28;20073;-60
2022/03/31 02:32:51;;;;;;;38.35;3.92;;;26.70;28.30;;;;;;4948806;28;20081;-62
2022/03/31 02:35:17;;;;;;;36.45;3.80;;;26.70;29.00;;;;;;4969406;28;20074;-61
2022/03/31 02:37:44;;;;;;;25.38;3.83;;;26.70;29.20;;;;;;4953447;28;20126;-63
2022/03/31 02:40:11;;;;;;;24.85;3.03;;;26.60;30.80;;;;;;4968628;28;20167;-63
2022/03/31 02:42:37;;;;;;;24.35;2.80;;;26.50;32.80;;;;;;4968079;28;20102;-61
2022/03/31 02:45:05;;;;;;;11.77;2.83;;;26.40;33.80;;;;;;4953193;28;20629;-62
2022/03/31 02:47:34;;;;;;;21.45;2.90;;;26.20;35.20;;;;;;4967520;28;20082;-61
2022/03/31 02:50:00;;;;;;;14.82;2.03;;;26.20;36.10;;;;;;4969331;28;20097;-61
2022/03/31 02:55:24;;;;;;;14.18;1.67;;;26.10;36.50;;;;;;4952178;28;20099;-61
2022/03/31 02:55:25;;;;;;;18.73;1.33;;;26.00;37.00;;;;;;4954277;28;20144;-62
2022/03/31 02:57:53;;;;;;;10.13;1.40;;;25.80;37.80;;;;;;4967601;28;20083;-64
2022/03/31 03:00:20;;;;;;;8.18;1.80;;;25.70;38.30;;;;;;4968628;28;20079;-59
2022/03/31 03:02:46;;;;;;;8.95;1.45;;;25.60;38.60;;;;;;4970688;28;20098;-61
2022/03/31 03:05:14;;;;;;;21.40;1.80;;;25.50;38.90;;;;;;4969658;28;20094;-63
2022/03/31 03:07:40;;;;;;;12.05;2.20;;;25.50;39.20;;;;;;4952887;28;20505;-62
2022/03/31 03:10:07;;;;;;;19.90;2.58;;;25.40;39.30;;;;;;4953273;28;20083;-60
2022/03/31 03:12:34;;;;;;;19.95;3.22;;;25.30;39.20;;;;;;4968885;28;20075;-61
2022/03/31 03:15:01;;;;;;;26.05;3.67;;;25.30;38.90;;;;;;4967127;28;20112;-60
2022/03/31 03:17:27;;;;;;;37.47;3.97;;;25.30;39.10;;;;;;4952347;28;20102;-61
2022/03/31 03:19:53;;;;;;;22.50;3.42;;;25.20;39.30;;;;;;4968239;28;20098;-58
2022/03/31 03:22:20;;;;;;;31.27;3.55;;;25.20;39.40;;;;;;4968138;28;20074;-59
2022/03/31 03:24:46;;;;;;;25.27;3.83;;;25.20;38.00;;;;;;4969124;28;20083;-61
2022/03/31 03:27:12;;;;;;;35.90;3.60;;;25.20;38.60;;;;;;4968809;28;20071;-64
2022/03/31 03:29:46;;;;;;;26.40;3.85;;;25.20;37.20;;;;;;4968081;28;20557;-65
2022/03/31 03:32:14;;;;;;;31.20;3.85;;;25.20;37.10;;;;;;4967674;28;20086;-60
2022/03/31 03:34:41;;;;;;;30.55;3.45;;;25.10;36.80;;;;;;4968058;28;20214;-62
2022/03/31 03:37:08;;;;;;;27.20;3.60;;;25.10;36.80;;;;;;4952512;28;20079;-61
2022/03/31 03:39:35;;;;;;;27.73;3.92;;;25.10;37.00;;;;;;4953667;28;20071;-62
2022/03/31 03:42:02;;;;;;;30.23;4.80;;;25.00;36.70;;;;;;4952448;28;20096;-61
2022/03/31 03:44:29;;;;;;;31.25;3.55;;;24.90;36.60;;;;;;4951931;28;20074;-61
2022/03/31 03:46:55;;;;;;;20.52;3.83;;;24.90;37.10;;;;;;4967700;28;20661;-60
2022/03/31 03:49:21;;;;;;;37.53;4.40;;;24.80;37.10;;;;;;4967665;28;20074;-63
2022/03/31 03:51:48;;;;;;;21.83;3.45;;;24.70;37.70;;;;;;4967877;28;20071;-62
2022/03/31 03:54:15;;;;;;;27.70;4.18;;;24.70;37.80;;;;;;4967761;28;20542;-62
2022/03/31 03:56:43;;;;;;;20.67;5.25;;;24.60;38.10;;;;;;4953086;28;20121;-61
2022/03/31 03:59:09;;;;;;;23.27;4.70;;;24.40;38.50;;;;;;4951097;28;20098;-64
2022/03/31 04:01:36;;;;;;;38.75;5.47;;;24.40;40.30;;;;;;4967232;28;20110;-62
2022/03/31 04:04:02;;;;;;;26.80;4.30;;;24.30;40.70;;;;;;4968834;28;20078;-61
2022/03/31 04:06:28;;;;;;;20.40;3.88;;;24.20;41.30;;;;;;4954688;28;20517;-60
2022/03/31 04:08:55;;;;;;;25.42;3.70;;;24.10;41.70;;;;;;4952918;28;20083;-61
2022/03/31 04:11:21;;;;;;;24.95;5.70;;;24.10;42.40;;;;;;4935845;28;20136;-60
2022/03/31 04:13:48;;;;;;;16.30;3.33;;;24.00;42.70;;;;;;4966743;28;20075;-64
2022/03/31 04:16:14;;;;;;;16.23;3.63;;;23.90;43.10;;;;;;4949365;28;20080;-61
2022/03/31 04:18:41;;;;;;;12.88;3.70;;;23.80;43.30;;;;;;4966785;28;20094;-62
2022/03/31 04:21:07;;;;;;;16.30;3.92;;;23.70;43.80;;;;;;4966985;28;20606;-63
2022/03/31 04:23:34;;;;;;;10.25;3.50;;;23.70;44.00;;;;;;4967377;28;20130;-62
2022/03/31 04:26:00;;;;;;;17.88;2.85;;;23.70;44.20;;;;;;4950167;28;20189;-61
2022/03/31 04:28:27;;;;;;;14.93;3.83;;;23.70;44.20;;;;;;4952851;28;20170;-61
2022/03/31 04:30:54;;;;;;;13.90;3.80;;;23.50;44.40;;;;;;4966660;28;20177;-60
2022/03/31 04:33:21;;;;;;;13.90;4.75;;;23.60;44.40;;;;;;4966577;28;20075;-61
2022/03/31 04:35:47;;;;;;;16.45;3.42;;;23.50;44.40;;;;;;4966640;28;20087;-63
2022/03/31 04:38:14;;;;;;;12.13;2.67;;;23.40;44.70;;;;;;4952315;28;20530;-61
2022/03/31 04:40:40;;;;;;;15.95;2.53;;;23.30;44.80;;;;;;4966892;28;20565;-64
2022/03/31 04:43:06;;;;;;;14.20;2.90;;;23.30;44.90;;;;;;4950454;28;20095;-61
2022/03/31 04:45:33;;;;;;;22.92;2.70;;;23.30;44.70;;;;;;4950968;28;20089;-61
2022/03/31 04:47:59;;;;;;;13.82;2.60;;;23.30;44.90;;;;;;4965753;28;20173;-62
2022/03/31 04:50:26;;;;;;;23.77;2.47;;;23.20;45.20;;;;;;4950456;28;20102;-61
2022/03/31 04:52:52;;;;;;;21.70;3.05;;;23.20;45.60;;;;;;4966124;28;20088;-62
2022/03/31 04:55:19;;;;;;;22.10;3.22;;;23.10;45.80;;;;;;4965931;28;20106;-61
2022/03/31 04:57:46;;;;;;;55.13;4.70;;;23.00;45.60;;;;;;4948846;28;20071;-63
2022/03/31 05:00:13;;;;;;;64.43;6.22;;;22.90;45.70;;;;;;4968223;28;20071;-65
2022/03/31 05:02:39;;;;;;;111.88;8.40;;;22.90;46.10;;;;;;4950951;28;20067;-64
2022/03/31 05:05:06;;;;;;;115.93;9.68;;;22.80;46.10;;;;;;4964831;28;20094;-62
2022/03/31 05:07:33;;;;;;;58.42;8.05;;;22.80;46.30;;;;;;4950361;28;20527;-64
2022/03/31 05:09:59;;;;;;;39.90;6.10;;;22.70;46.30;;;;;;4965979;28;20159;-61
2022/03/31 05:12:26;;;;;;;34.33;5.75;;;22.70;46.00;;;;;;4950876;28;20074;-62
2022/03/31 05:14:54;;;;;;;24.95;5.28;;;22.70;46.20;;;;;;4964877;28;20154;-63
2022/03/31 05:17:21;;;;;;;21.48;4.75;;;22.70;46.00;;;;;;4946942;28;20079;-64
2022/03/31 05:19:47;;;;;;;23.90;5.88;;;22.60;45.90;;;;;;4948570;28;20081;-61
2022/03/31 05:22:13;;;;;;;32.20;6.00;;;22.50;46.00;;;;;;4965763;28;20078;-63
2022/03/31 05:24:40;;;;;;;34.78;5.80;;;22.50;46.60;;;;;;4965398;28;20596;-63
2022/03/31 05:27:07;;;;;;;28.17;6.05;;;22.40;46.00;;;;;;4965015;28;20436;-63
2022/03/31 05:29:34;;;;;;;30.27;6.28;;;22.40;46.20;;;;;;4960403;28;20602;-61
2022/03/31 05:32:01;;;;;;;39.58;6.75;;;22.40;46.30;;;;;;4947757;28;20126;-62
2022/03/31 05:34:27;;;;;;;14.48;5.47;;;22.40;46.30;;;;;;4965149;28;20075;-64
2022/03/31 05:36:53;;;;;;;27.92;5.60;;;22.30;46.20;;;;;;4946998;28;20081;-63
2022/03/31 05:39:20;;;;;;;26.23;5.60;;;22.40;46.20;;;;;;4966250;28;20137;-61
2022/03/31 05:41:46;;;;;;;19.85;5.85;;;22.30;46.20;;;;;;4965573;28;20083;-64
2022/03/31 05:44:13;;;;;;;21.15;5.72;;;22.30;46.50;;;;;;4962433;28;20074;-62
2022/03/31 05:46:39;;;;;;;31.02;7.55;;;22.30;46.40;;;;;;4950062;28;20121;-63
2022/03/31 05:49:05;;;;;;;51.47;12.20;;;22.20;46.50;;;;;;4933510;28;20070;-62
2022/03/31 05:51:32;;;;;;;41.67;13.02;;;22.20;46.50;;;;;;4963528;28;20538;-63
2022/03/31 05:53:59;;;;;;;45.45;12.30;;;22.10;46.50;;;;;;4950111;28;20089;-66
2022/03/31 05:56:26;;;;;;;33.35;9.70;;;22.10;46.90;;;;;;4964929;28;20205;-63
2022/03/31 05:58:52;;;;;;;40.53;9.95;;;22.10;47.20;;;;;;4964838;28;20173;-61
2022/03/31 06:01:19;;;;;;;33.00;11.15;;;22.10;47.10;;;;;;4965974;28;20085;-61
2022/03/31 06:03:46;;;;;;;37.83;11.40;;;22.10;47.00;;;;;;4968286;28;20445;-60
2022/03/31 06:06:12;;;;;;;32.83;11.13;;;22.10;47.20;;;;;;4948322;28;20194;-62
2022/03/31 06:08:38;;;;;;;30.35;11.57;;;22.10;47.20;;;;;;4949121;28;20067;-61
2022/03/31 06:11:05;;;;;;;39.72;10.55;;;22.00;47.30;;;;;;4964868;28;20095;-62
2022/03/31 06:13:31;;;;;;;26.10;8.95;;;21.90;47.60;;;;;;4952670;28;20094;-59
2022/03/31 06:15:58;;;;;;;16.45;6.43;;;21.80;48.20;;;;;;4951202;28;20089;-61
2022/03/31 06:18:25;;;;;;;27.70;7.13;;;21.70;48.50;;;;;;4947215;28;20162;-61
2022/03/31 06:20:51;;;;;;;25.23;10.73;;;21.70;48.50;;;;;;4962819;28;20082;-63
2022/03/31 06:23:18;;;;;;;25.70;8.20;;;21.70;48.80;;;;;;4952599;28;20078;-61
2022/03/31 06:25:45;;;;;;;38.42;10.73;;;21.60;49.20;;;;;;4951937;28;20462;-61
2022/03/31 06:28:14;;;;;;;39.65;13.45;;;21.70;49.40;;;;;;4954720;28;20074;-60
2022/03/31 06:30:40;;;;;;;23.40;7.75;;;21.60;49.80;;;;;;4951980;28;20091;-61
2022/03/31 06:33:07;;;;;;;20.75;5.32;;;21.60;50.40;;;;;;4952394;28;20093;-59
2022/03/31 06:35:33;;;;;;;19.60;5.57;;;21.50;50.80;;;;;;4966384;28;20086;-61
2022/03/31 06:38:01;;;;;;;17.52;4.75;;;21.60;51.20;;;;;;4952831;28;20105;-61
2022/03/31 06:40:31;;;;;;;15.80;4.93;;;21.50;51.40;;;;;;4966416;28;20105;-61
2022/03/31 06:42:57;;;;;;;14.57;4.80;;;21.60;51.80;;;;;;4965522;28;20083;-61
2022/03/31 06:45:25;;;;;;;16.98;4.50;;;21.60;51.70;;;;;;4965704;28;20451;-63
2022/03/31 06:47:51;;;;;;;16.23;4.53;;;21.50;52.00;;;;;;4952548;28;20274;-64
2022/03/31 06:50:18;;;;;;;15.40;5.13;;;21.50;52.50;;;;;;4954900;28;20102;-62
2022/03/31 06:52:44;;;;;;;22.45;4.90;;;21.50;52.80;;;;;;4954259;28;20086;-63
2022/03/31 06:55:11;;;;;;;17.48;4.80;;;21.50;53.20;;;;;;4956934;28;20109;-60
2022/03/31 06:57:37;;;;;;;18.58;5.72;;;21.20;53.90;;;;;;4967954;28;20617;-62
2022/03/31 07:00:06;;;;;;;25.92;7.22;;;21.10;55.70;;;;;;4971482;28;20106;-66
2022/03/31 07:02:32;;;;;;;18.88;6.03;;;21.10;56.50;;;;;;4961515;28;20107;-60
2022/03/31 07:04:59;;;;;;;18.35;5.43;;;21.10;57.10;;;;;;4957077;28;20106;-60
2022/03/31 07:07:25;;;;;;;17.73;4.72;;;21.00;58.90;;;;;;4969270;28;20079;-61
2022/03/31 07:09:52;;;;;;;17.15;4.38;;;20.90;60.40;;;;;;4968399;28;20071;-61
2022/03/31 07:12:19;;;;;;;27.50;4.28;;;20.90;61.70;;;;;;4954718;28;20130;-60
2022/03/31 07:14:46;;;;;;;20.63;4.00;;;20.80;62.70;;;;;;4971972;28;20731;-61
2022/03/31 07:17:12;;;;;;;22.50;4.22;;;20.80;63.50;;;;;;4956210;28;20075;-63
2022/03/31 07:19:39;;;;;;;21.80;4.18;;;20.80;64.00;;;;;;4963552;28;20438;-60
2022/03/31 07:22:05;;;;;;;15.73;3.35;;;20.80;64.30;;;;;;4968142;28;20158;-62
2022/03/31 07:24:32;;;;;;;15.63;4.05;;;20.70;64.90;;;;;;4953416;28;20080;-60
2022/03/31 07:26:58;;;;;;;18.02;3.33;;;20.60;66.00;;;;;;4953958;28;20094;-58
2022/03/31 07:29:25;;;;;;;22.58;3.72;;;20.60;66.40;;;;;;4953242;28;20204;-60
2022/03/31 07:31:51;;;;;;;19.15;3.67;;;20.50;67.10;;;;;;4969876;28;20089;-63
2022/03/31 07:34:18;;;;;;;16.80;3.17;;;20.50;67.90;;;;;;4949274;28;20086;-61
2022/03/31 07:36:44;;;;;;;12.95;3.03;;;20.50;68.10;;;;;;4970457;28;20086;-61
2022/03/31 07:39:11;;;;;;;17.25;3.90;;;20.40;68.50;;;;;;4969614;28;20075;-60
2022/03/31 07:41:37;;;;;;;24.30;3.78;;;20.30;69.30;;;;;;4968359;28;20506;-59
2022/03/31 07:44:04;;;;;;;11.65;3.08;;;20.20;69.80;;;;;;4970784;28;20424;-59
2022/03/31 07:46:32;;;;;;;12.63;3.40;;;20.20;70.40;;;;;;4949673;28;20087;-60
2022/03/31 07:48:59;;;;;;;11.63;3.58;;;20.30;70.70;;;;;;4952332;28;20136;-60
2022/03/31 07:51:26;;;;;;;18.90;4.00;;;20.20;71.00;;;;;;4918465;28;20079;-58
2022/03/31 07:53:53;;;;;;;22.27;4.43;;;20.10;71.70;;;;;;4952630;28;20098;-60
2022/03/31 07:56:19;;;;;;;20.60;5.30;;;20.00;72.70;;;;;;4955801;28;20198;-60
2022/03/31 07:58:46;;;;;;;22.33;4.80;;;20.00;74.00;;;;;;4950645;28;20087;-59
2022/03/31 08:01:12;;;;;;;;;;;19.90;75.10;;;;;;4963316;28;20101;-63
2022/03/31 08:03:39;;;;;;;17.60;4.30;;;19.90;76.00;;;;;;4971239;28;20060;-61
2022/03/31 08:06:07;;;;;;;15.63;3.17;;;19.80;77.80;;;;;;4949128;28;20639;-59
2022/03/31 08:08:33;;;;;;;12.13;2.92;;;19.80;79.40;;;;;;4968776;28;20074;-60
2022/03/31 08:11:00;;;;;;;16.55;2.92;;;19.70;80.60;;;;;;4968909;28;20143;-61
2022/03/31 08:13:28;;;;;;;16.67;3.55;;;19.70;81.60;;;;;;4968529;28;20439;-59
2022/03/31 08:15:55;;;;;;;16.80;2.90;;;19.80;81.80;;;;;;4950897;28;20150;-58
2022/03/31 08:18:25;;;;;;;13.82;3.20;;;19.80;82.30;;;;;;4950596;28;20136;-63
2022/03/31 08:20:53;;;;;;;15.13;3.55;;;19.60;82.50;;;;;;4966314;28;20130;-61
2022/03/31 08:23:20;;;;;;;18.15;5.18;;;19.40;83.60;;;;;;4953460;28;20095;-63
2022/03/31 08:25:46;;;;;;;23.08;5.70;;;19.40;85.60;;;;;;4952486;28;20179;-61
2022/03/31 08:28:13;;;;;;;26.33;4.20;;;19.40;86.70;;;;;;4952363;28;20076;-60
2022/03/31 08:30:39;;;;;;;23.75;4.75;;;19.40;87.20;;;;;;4969693;28;20092;-63
2022/03/31 08:33:05;;;;;;;;;;;19.40;87.60;;;;;;4968655;28;20527;-60
2022/03/31 08:35:31;;;;;;;22.40;4.20;;;19.30;87.70;;;;;;4949765;28;20049;-60
2022/03/31 08:37:58;;;;;;;22.02;4.63;;;19.30;88.10;;;;;;4951092;28;20090;-60
2022/03/31 08:40:24;;;;;;;17.58;4.22;;;19.10;88.70;;;;;;4967805;28;20558;-62
2022/03/31 08:42:53;;;;;;;22.42;4.20;;;19.10;89.70;;;;;;4966328;28;20553;-60
2022/03/31 08:45:20;;;;;;;15.20;5.22;;;19.00;90.10;;;;;;4934087;28;20169;-60
2022/03/31 08:47:49;;;;;;;25.20;4.80;;;19.10;90.60;;;;;;4952134;28;20538;-61
2022/03/31 08:50:18;;;;;;;15.63;4.35;;;19.00;90.60;;;;;;4953894;28;20159;-63
2022/03/31 08:52:45;;;;;;;26.23;4.53;;;18.90;91.00;;;;;;4953468;28;20068;-62
2022/03/31 08:55:12;;;;;;;15.95;5.10;;;18.90;91.30;;;;;;4951842;28;20115;-59
2022/03/31 08:57:47;;;;;;;17.83;5.40;;;18.80;91.80;;;;;;4951549;28;20431;-60
2022/03/31 09:00:16;;;;;;;16.80;4.20;;;18.90;92.00;;;;;;4947840;28;20166;-59
2022/03/31 09:02:59;;;;;;;17.30;4.05;;;18.80;92.30;;;;;;4917868;28;20072;-60
2022/03/31 09:05:27;;;;;;;15.93;3.50;;;18.70;92.30;;;;;;4964580;28;20170;-62
2022/03/31 09:08:02;;;;;;;19.17;3.08;;;18.70;92.40;;;;;;4949914;28;20142;-62
2022/03/31 09:10:31;;;;;;;17.63;3.05;;;18.60;92.80;;;;;;4954476;28;20195;-60
2022/03/31 09:13:00;;;;;;;13.38;3.08;;;18.60;93.00;;;;;;4953723;28;20467;-60
2022/03/31 09:15:27;;;;;;;10.45;2.88;;;18.60;93.30;;;;;;4950882;28;20084;-60
2022/03/31 09:17:55;;;;;;;9.43;2.85;;;18.50;93.30;;;;;;4951883;28;20083;-59
2022/03/31 09:20:22;;;;;;;15.90;3.78;;;18.50;93.60;;;;;;4951460;28;20551;-61
2022/03/31 09:22:49;;;;;;;14.50;3.70;;;18.50;93.80;;;;;;4964133;28;20087;-62
2022/03/31 09:25:26;;;;;;;17.00;4.00;;;18.50;93.90;;;;;;4935396;28;20100;-61
2022/03/31 09:27:53;;;;;;;15.40;3.58;;;18.40;93.90;;;;;;4954164;28;20086;-60
2022/03/31 09:30:20;;;;;;;11.30;3.75;;;18.30;94.60;;;;;;4967982;28;20111;-64
2022/03/31 09:32:50;;;;;;;12.45;3.45;;;18.30;94.60;;;;;;4966736;28;20079;-59
2022/03/31 09:35:23;;;;;;;12.25;3.70;;;18.40;94.90;;;;;;4966671;28;20595;-62
2022/03/31 09:37:51;;;;;;;15.50;4.05;;;18.30;94.80;;;;;;4949526;28;20191;-61
2022/03/31 09:40:19;;;;;;;20.52;4.72;;;18.30;95.20;;;;;;4950917;28;20091;-59
2022/03/31 09:42:59;;;;;;;14.05;4.43;;;18.30;95.00;;;;;;4951483;28;20135;-63
2022/03/31 09:45:38;;;;;;;15.43;3.83;;;18.20;95.00;;;;;;4948076;28;20142;-61
2022/03/31 09:48:08;;;;;;;16.23;3.65;;;18.20;95.10;;;;;;4932938;28;20846;-61
2022/03/31 09:50:36;;;;;;;13.60;3.58;;;18.20;95.20;;;;;;4950622;28;20556;-64
2022/03/31 09:53:03;;;;;;;13.45;3.28;;;18.20;95.50;;;;;;4934105;28;20072;-64
2022/03/31 09:55:30;;;;;;;12.75;2.95;;;18.10;95.50;;;;;;4966820;28;20123;-61
2022/03/31 09:57:57;;;;;;;14.43;3.50;;;18.10;95.50;;;;;;4930414;28;20072;-64
2022/03/31 10:00:25;;;;;;;18.67;3.63;;;18.10;95.60;;;;;;4966288;28;20118;-61
2022/03/31 10:02:51;;;;;;;13.48;3.13;;;18.00;95.70;;;;;;4968860;28;20083;-61
2022/03/31 10:05:18;;;;;;;15.75;2.97;;;17.90;95.90;;;;;;4965358;28;20103;-64
2022/03/31 10:07:50;;;;;;;11.88;2.78;;;18.00;96.10;;;;;;4948693;28;20127;-64
2022/03/31 10:10:17;;;;;;;14.00;3.35;;;18.00;95.70;;;;;;4954053;28;20557;-60
2022/03/31 10:13:09;;;;;;;14.07;2.78;;;17.90;95.70;;;;;;4965998;28;20859;-64
2022/03/31 10:15:37;;;;;;;11.07;2.17;;;17.80;96.00;;;;;;4874662;29;20087;-64
2022/03/31 10:18:04;;;;;;;9.80;2.45;;;17.80;96.10;;;;;;4891145;29;20093;-62
2022/03/31 10:20:30;;;;;;;8.98;2.25;;;17.80;96.10;;;;;;4875371;29;20583;-64
2022/03/31 10:25:45;;;;;;;9.82;2.67;;;17.70;96.00;;;;;;4880869;29;20495;-64
2022/03/31 10:28:16;;;;;;;15.27;2.60;;;17.60;95.90;;;;;;4895126;29;20085;-60
2022/03/31 10:31:01;;;;;;;16.10;2.70;;;17.50;96.00;;;;;;4894614;29;20141;-60
2022/03/31 10:33:34;;;;;;;11.73;2.22;;;17.50;95.90;;;;;;4878848;29;20080;-64
2022/03/31 10:36:21;;;;;;;9.48;2.08;;;17.40;95.80;;;;;;4872846;29;20084;-59
2022/03/31 10:39:01;;;;;;;8.35;1.98;;;17.40;95.80;;;;;;4879957;29;20109;-63
2022/03/31 10:41:35;;;;;;;11.18;2.28;;;17.50;95.50;;;;;;4870850;29;20085;-62
2022/03/31 10:44:18;;;;;;;11.57;2.13;;;17.50;95.30;;;;;;4878995;29;20081;-59
2022/03/31 10:46:46;;;;;;;11.65;2.33;;;17.40;95.00;;;;;;4878091;29;20116;-63
2022/03/31 10:49:19;;;;;;;13.48;2.63;;;17.30;95.20;;;;;;4879255;29;20089;-61
2022/03/31 10:51:46;;;;;;;8.23;2.00;;;17.40;95.20;;;;;;4879296;28;20080;-58
2022/03/31 10:54:29;;;;;;;12.63;2.22;;;17.30;94.90;;;;;;4918797;28;20072;-61
2022/03/31 10:57:05;;;;;;;10.02;2.28;;;17.30;95.00;;;;;;4953503;28;20115;-61
2022/03/31 10:59:32;;;;;;;7.45;1.95;;;17.20;94.90;;;;;;4952867;28;20087;-59
2022/03/31 11:02:12;;;;;;;6.07;1.75;;;17.20;95.10;;;;;;4952639;28;20103;-59
2022/03/31 11:04:47;;;;;;;9.32;2.38;;;17.10;95.10;;;;;;4966529;28;20083;-64
2022/03/31 11:07:20;;;;;;;8.57;2.28;;;17.10;95.00;;;;;;4953366;28;20146;-62
2022/03/31 11:09:47;;;;;;;6.28;1.85;;;17.10;95.00;;;;;;4957759;28;20095;-60
2022/03/31 11:12:26;;;;;;;6.47;1.73;;;17.10;94.90;;;;;;4968670;28;20068;-62
2022/03/31 11:15:00;;;;;;;11.38;2.20;;;17.00;94.80;;;;;;4972142;28;20166;-61
2022/03/31 11:17:28;;;;;;;9.65;1.70;;;17.00;94.50;;;;;;4953484;28;20076;-61
2022/03/31 11:19:55;;;;;;;7.95;1.88;;;16.90;94.20;;;;;;4969088;28;20079;-61
2022/03/31 11:22:26;;;;;;;9.77;1.88;;;16.90;94.10;;;;;;4969866;28;20080;-61
2022/03/31 11:24:54;;;;;;;13.30;2.00;;;16.80;93.80;;;;;;4934171;28;20092;-62
2022/03/31 11:27:38;;;;;;;10.25;1.67;;;16.90;93.80;;;;;;4952052;28;20107;-60
2022/03/31 11:30:14;;;;;;;9.80;1.88;;;17.00;93.20;;;;;;4949361;28;20079;-60
2022/03/31 11:32:43;;;;;;;9.38;1.83;;;16.90;93.10;;;;;;4949735;28;20202;-60
2022/03/31 11:35:15;;;;;;;10.32;2.17;;;16.80;93.10;;;;;;4954719;28;20178;-60
2022/03/31 11:37:53;;;;;;;8.93;2.20;;;16.90;93.00;;;;;;4946226;28;20076;-59
2022/03/31 11:40:25;;;;;;;9.13;2.35;;;16.90;92.90;;;;;;4971398;28;20158;-63
2022/03/31 11:42:54;;;;;;;9.65;3.15;;;16.80;92.90;;;;;;4969534;28;20091;-60
2022/03/31 11:45:25;;;;;;;12.30;2.72;;;16.70;92.90;;;;;;4970852;28;20146;-61
2022/03/31 11:48:04;;;;;;;8.40;2.40;;;16.70;92.80;;;;;;4954976;28;20079;-63
2022/03/31 11:50:32;;;;;;;9.27;2.58;;;16.70;92.70;;;;;;4951377;28;20122;-63
2022/03/31 11:53:00;;;;;;;10.55;2.80;;;16.70;92.50;;;;;;4952459;28;20129;-59
2022/03/31 11:55:28;;;;;;;13.30;2.85;;;16.70;92.30;;;;;;4969816;28;20115;-59
2022/03/31 11:58:00;;;;;;;12.63;2.50;;;16.70;92.30;;;;;;4951011;28;20086;-62
2022/03/31 12:00:29;;;;;;;7.43;2.35;;;16.80;92.30;;;;;;4952949;28;20092;-62
2022/03/31 12:03:02;;;;;;;12.02;2.50;;;16.70;92.10;;;;;;4967373;28;20076;-60
2022/03/31 12:05:29;;;;;;;17.00;2.95;;;16.70;92.10;;;;;;4950404;28;20095;-62
2022/03/31 12:07:57;;;;;;;12.07;2.90;;;16.70;92.10;;;;;;4953695;28;20086;-60
2022/03/31 12:10:24;;;;;;;11.45;3.00;;;16.60;91.80;;;;;;4953456;28;20091;-59
2022/03/31 12:12:56;;;;;;;11.98;2.55;;;16.60;91.90;;;;;;4950482;28;20540;-59
2022/03/31 12:15:25;;;;;;;16.67;3.28;;;16.60;91.80;;;;;;4953187;28;20126;-61
2022/03/31 12:18:05;;;;;;;14.40;2.75;;;16.60;91.80;;;;;;4950012;28;20119;-64
2022/03/31 12:20:35;;;;;;;13.35;2.65;;;16.50;91.90;;;;;;4951040;28;20438;-63
2022/03/31 12:23:03;;;;;;;10.93;2.70;;;16.50;92.00;;;;;;4953066;28;20075;-63
2022/03/31 12:25:35;;;;;;;12.63;3.00;;;16.60;92.10;;;;;;4952688;28;20111;-61
2022/03/31 12:28:08;;;;;;;9.43;2.95;;;16.50;92.10;;;;;;4956105;28;20068;-64
2022/03/31 12:30:40;;;;;;;12.68;3.35;;;16.50;91.70;;;;;;4934983;28;20090;-66
2022/03/31 12:33:36;;;;;;;17.00;3.75;;;16.40;91.90;;;;;;4935064;28;20071;-61
2022/03/31 12:36:07;;;;;;;16.85;4.22;;;16.30;92.00;;;;;;4954163;28;20122;-65
2022/03/31 12:38:43;;;;;;;13.70;2.95;;;16.30;92.30;;;;;;4935073;28;20084;-60
2022/03/31 12:41:22;;;;;;;11.25;3.00;;;16.30;92.10;;;;;;4939316;28;20075;-62
2022/03/31 12:43:57;;;;;;;14.77;2.80;;;16.20;92.50;;;;;;4952278;28;20096;-70
2022/03/31 12:46:26;;;;;;;12.20;3.40;;;16.20;92.60;;;;;;4966875;28;20607;-61